Weather reports worldwide

Advertisment
Teruel, Spain (8235): temperature & dewpoint: 22.03.2020 21:00:00 - 28.03.2020 21:00:00 (CET)Teruel, Spain (8235): wind speed: 22.03.2020 21:00:00 - 28.03.2020 21:00:00 (CET)Teruel, Spain (8235): wind direction: 22.03.2020 21:00:00 - 28.03.2020 21:00:00 (CET)Teruel, Spain (8235): visibility: 22.03.2020 21:00:00 - 28.03.2020 21:00:00 (CET)Teruel, Spain (8235): precipitation: 22.03.2020 21:00:00 - 28.03.2020 21:00:00 (CET)
Date & Time tt [°C] td [°C] ff [km/h] ff [kn] dd vv [km] rr [mm]
28.03.2020 21:00:00 7,9 2,4 4 2 NE 20 0,0
28.03.2020 20:00:00 10,9 1,9 4 2 NNW 20 0,0
28.03.2020 19:00:00 11,7 1,3 4 2 W 20 -
28.03.2020 18:00:00 12,5 0,9 4 2 WSW 20 0,0
28.03.2020 17:00:00 13,2 0,2 4 2 NNW 20 0,0
28.03.2020 16:00:00 12,8 0,8 8 4 S 20 -
28.03.2020 15:00:00 12,0 1,0 5 3 E 20 0,0
28.03.2020 14:00:00 11,2 1,1 4 2 SW 20 0,0
28.03.2020 13:00:00 10,7 2,0 4 2 SE 20 -
28.03.2020 12:00:00 9,3 2,8 5 3 SSE 20 0,0
28.03.2020 11:00:00 8,6 2,2 5 3 WNW 20 0,0
28.03.2020 10:00:00 5,1 2,1 5 3 NNW 20 -
28.03.2020 09:00:00 3,0 1,2 4 2 W 19 0,0
28.03.2020 08:00:00 1,6 0,1 0 0 N 19 0,0
28.03.2020 07:00:00 1,2 0,0 2 1 NNW 15 -
28.03.2020 06:00:00 0,7 -0,5 2 1 E 17 0,0
28.03.2020 05:00:00 0,3 -0,7 2 1 S 18 0,0
28.03.2020 04:00:00 -0,2 -1,0 4 2 WSW 17 -
28.03.2020 03:00:00 -0,6 -1,6 4 2 N 14 0,0
28.03.2020 02:00:00 0,2 -0,9 4 2 N 16 0,0
28.03.2020 01:00:00 0,7 -0,8 2 1 NW 14 -
28.03.2020 00:00:00 1,4 -0,2 2 1 W 17 0,0
27.03.2020 23:00:00 2,9 0,9 2 1 N 19 0,0
27.03.2020 22:00:00 3,6 1,3 2 1 ESE 20 -
27.03.2020 21:00:00 5,4 1,9 5 3 S 20 0,0
27.03.2020 20:00:00 6,9 0,6 5 3 SSE 20 0,0
27.03.2020 19:00:00 6,8 0,9 4 2 ESE 20 -
27.03.2020 18:00:00 10,5 1,0 8 4 ESE 20 0,0
27.03.2020 17:00:00 10,9 0,3 11 6 SSE 20 0,0
27.03.2020 16:00:00 12,2 0,6 16 9 S 20 -
27.03.2020 15:00:00 11,6 -1,2 11 6 SSE 20 0,0
27.03.2020 14:00:00 11,2 0,6 9 5 SSE 20 0,0
27.03.2020 13:00:00 8,6 -0,7 4 2 E 20 -
27.03.2020 12:00:00 8,0 -1,3 4 2 SSE 20 0,0
27.03.2020 11:00:00 6,3 -0,9 8 4 NNE 20 0,0
27.03.2020 10:00:00 3,7 -1,7 5 3 NNE 20 -
27.03.2020 09:00:00 2,0 -1,6 5 3 NW 20 0,0
27.03.2020 08:00:00 -0,2 -2,4 8 4 W 17 0,0
27.03.2020 07:00:00 -1,0 -3,2 5 3 W 15 -
27.03.2020 06:00:00 - - - - - - -
27.03.2020 05:00:00 - - - - - - -
27.03.2020 04:00:00 -1,5 -3,9 4 2 N 19 -
27.03.2020 03:00:00 -1,0 -3,8 4 2 SSE 19 0,0
27.03.2020 02:00:00 -0,3 -3,7 5 3 W 18 0,0
27.03.2020 01:00:00 0,3 -3,8 5 3 NW 20 -
27.03.2020 00:00:00 1,7 -4,0 4 2 NW 20 0,0
26.03.2020 23:00:00 2,9 -3,5 5 3 NW 20 0,0
26.03.2020 22:00:00 3,1 -3,5 5 3 NW 20 -
26.03.2020 21:00:00 4,0 -4,0 4 2 N 20 0,0
26.03.2020 20:00:00 5,2 -4,1 5 3 NE 20 0,0
26.03.2020 19:00:00 7,3 -4,2 11 6 NNE 20 -
26.03.2020 18:00:00 9,6 -3,0 11 6 NNE 20 0,0
26.03.2020 17:00:00 9,5 -4,5 18 10 NNW 20 0,0
26.03.2020 16:00:00 9,7 -3,3 15 8 NNW 20 -
26.03.2020 15:00:00 8,5 -1,1 15 8 N 20 0,0
26.03.2020 14:00:00 7,3 0,7 15 8 WNW 19 0,0
26.03.2020 13:00:00 5,8 1,1 21 11 NW 19 -
26.03.2020 12:00:00 7,7 0,9 18 10 NNW 20 0,0
26.03.2020 11:00:00 5,7 0,5 13 7 N 20 0,0
26.03.2020 10:00:00 5,4 0,9 11 6 NNW 20 -
26.03.2020 09:00:00 4,3 -0,1 11 6 NW 20 0,0
26.03.2020 08:00:00 2,9 -0,2 8 4 WNW 20 0,0
26.03.2020 07:00:00 2,6 0,5 8 4 NW 20 -
26.03.2020 06:00:00 3,8 2,0 9 5 NW 20 0,0
26.03.2020 05:00:00 3,1 2,2 8 4 W 20 0,0
26.03.2020 04:00:00 3,6 2,3 5 3 W 20 -
26.03.2020 03:00:00 4,7 3,0 4 2 S 20 0,0
26.03.2020 02:00:00 4,7 3,2 8 4 S 20 0,0
26.03.2020 01:00:00 4,2 3,3 4 2 SE 20 -
26.03.2020 00:00:00 3,8 2,6 4 2 SE 20 0,0
25.03.2020 23:00:00 4,1 2,1 2 1 SE 20 0,0
25.03.2020 22:00:00 4,7 2,4 4 2 SE 20 -
25.03.2020 21:00:00 5,5 3,3 13 7 SSE 20 0,0
25.03.2020 20:00:00 7,4 3,3 5 3 SSE 20 0,0
25.03.2020 19:00:00 10,1 0,4 5 3 N 20 -
25.03.2020 18:00:00 11,9 -1,0 11 6 NNE 20 0,0
25.03.2020 17:00:00 12,0 -0,9 9 5 N 20 0,0
25.03.2020 16:00:00 11,9 0,0 11 6 N 20 -
25.03.2020 15:00:00 11,5 2,8 13 7 NE 20 0,0
25.03.2020 14:00:00 9,9 4,3 5 3 SSW 20 0,2
25.03.2020 13:00:00 9,3 5,1 8 4 E 19 -
25.03.2020 12:00:00 7,9 4,8 9 5 S 20 0,0
25.03.2020 11:00:00 6,3 4,1 11 6 S 20 0,4
25.03.2020 10:00:00 4,8 3,5 9 5 S 15 -
25.03.2020 09:00:00 4,4 3,4 4 2 SSE 19 0,0
25.03.2020 08:00:00 4,1 2,9 5 3 SSE 20 0,0
25.03.2020 07:00:00 4,3 3,3 5 3 S 20 -
25.03.2020 06:00:00 4,1 3,2 2 1 NE 6 0,8
25.03.2020 05:00:00 4,1 3,2 4 2 N 10 0,4
25.03.2020 04:00:00 4,3 3,1 2 1 NNW 7 -
25.03.2020 03:00:00 3,9 2,4 4 2 N 20 0,0
25.03.2020 02:00:00 3,4 1,9 2 1 N 19 0,0
25.03.2020 01:00:00 3,9 1,9 2 1 NW 20 -
25.03.2020 00:00:00 5,0 2,2 4 2 S 20 0,0
24.03.2020 23:00:00 5,4 2,4 4 2 SE 20 0,0
24.03.2020 22:00:00 6,3 3,1 8 4 SSE 20 -
24.03.2020 21:00:00 7,5 3,4 5 3 SSE 20 0,0
24.03.2020 20:00:00 8,1 3,4 4 2 E 20 0,0
24.03.2020 19:00:00 8,6 3,2 5 3 E 20 -
24.03.2020 18:00:00 9,2 3,6 8 4 E 20 0,0
24.03.2020 17:00:00 10,0 4,1 5 3 ESE 20 0,0
24.03.2020 16:00:00 12,1 4,6 8 4 SE 20 -
24.03.2020 15:00:00 13,1 3,7 8 4 ESE 20 0,0
24.03.2020 14:00:00 12,4 3,9 9 5 E 20 0,0
24.03.2020 13:00:00 12,3 3,8 9 5 E 20 -
24.03.2020 12:00:00 11,9 5,5 8 4 ESE 20 0,0
24.03.2020 11:00:00 9,8 6,0 8 4 ESE 20 0,0
24.03.2020 10:00:00 9,6 4,8 4 2 WNW 20 -
24.03.2020 09:00:00 8,2 5,0 5 3 W 20 0,0
24.03.2020 08:00:00 7,0 5,1 2 1 WSW 20 0,0
24.03.2020 07:00:00 6,6 4,9 4 2 NNW 20 -
24.03.2020 06:00:00 6,9 4,7 4 2 NW 20 0,0
24.03.2020 05:00:00 6,8 4,6 4 2 WNW 20 0,0
24.03.2020 04:00:00 7,0 4,8 5 3 N 20 -
24.03.2020 03:00:00 7,6 4,7 4 2 SSW 20 0,0
24.03.2020 02:00:00 8,1 4,5 2 1 ENE 20 0,0
24.03.2020 01:00:00 8,6 5,2 4 2 WNW 20 -
24.03.2020 00:00:00 8,4 5,5 2 1 ESE 20 0,0
23.03.2020 23:00:00 8,3 5,9 2 1 NE 20 0,0
23.03.2020 22:00:00 8,5 5,8 4 2 WNW 20 -
23.03.2020 21:00:00 8,6 5,7 4 2 SE 20 0,0
23.03.2020 20:00:00 8,6 5,3 4 2 ESE 20 0,0
23.03.2020 19:00:00 9,8 5,6 9 5 ESE 20 -
23.03.2020 18:00:00 11,1 5,4 9 5 ESE 20 0,0
23.03.2020 17:00:00 10,8 7,1 8 4 E 20 0,2
23.03.2020 16:00:00 13,6 6,2 9 5 ESE 20 -
23.03.2020 15:00:00 13,0 6,6 13 7 E 20 0,0
23.03.2020 14:00:00 13,5 7,0 11 6 E 20 0,0
23.03.2020 13:00:00 11,8 6,9 11 6 E 20 -
23.03.2020 12:00:00 11,0 8,0 9 5 ESE 20 0,0
23.03.2020 11:00:00 8,4 6,9 4 2 NE 19 0,2
23.03.2020 10:00:00 7,8 6,7 4 2 WNW 7 -
23.03.2020 09:00:00 7,0 6,3 2 1 WSW 6 0,2
23.03.2020 08:00:00 6,9 6,2 4 2 NNW - 0,2
23.03.2020 07:00:00 6,8 5,9 2 1 ENE 20 -
23.03.2020 06:00:00 7,0 5,8 4 2 WNW 18 0,0
23.03.2020 05:00:00 6,7 5,6 0 0 N 16 0,2
23.03.2020 04:00:00 7,0 5,5 4 2 NNW 13 -
23.03.2020 03:00:00 7,3 5,4 2 1 SSE 16 0,0
23.03.2020 02:00:00 7,6 4,9 2 1 E 20 0,0
23.03.2020 01:00:00 7,5 5,0 2 1 E 20 -
23.03.2020 00:00:00 7,6 5,1 2 1 ENE 20 0,0
22.03.2020 23:00:00 7,4 4,9 2 1 E 20 0,0
22.03.2020 22:00:00 7,3 4,8 5 3 E 20 -
22.03.2020 21:00:00 7,7 5,0 4 2 E 20 0,0

tt = temperature
td = dewpoint
ff = wind speed
dd = wind direction
vv = visibility
rr = precipitation

Next stations